createdAt,value
2023-03-19T00:00:41.753Z,41.30
2023-03-19T00:03:48.078Z,41.55
2023-03-19T00:06:55.045Z,42.00
2023-03-19T00:10:10.044Z,41.95
2023-03-19T00:13:17.521Z,42.18
2023-03-19T00:16:23.817Z,42.34
2023-03-19T00:19:31.036Z,42.51
2023-03-19T00:22:37.390Z,42.21
2023-03-19T00:25:46.789Z,42.61
2023-03-19T00:28:52.612Z,42.51
2023-03-19T00:31:59.421Z,42.78
2023-03-19T00:35:06.583Z,42.48
2023-03-19T00:38:13.346Z,42.44
2023-03-19T00:41:23.014Z,42.18
2023-03-19T00:44:29.952Z,41.78
2023-03-19T00:47:36.328Z,42.13
2023-03-19T00:50:43.058Z,42.04
2023-03-19T00:53:49.240Z,42.06
2023-03-19T00:56:58.615Z,42.42
2023-03-19T01:00:04.606Z,42.61
2023-03-19T01:03:11.422Z,42.62
2023-03-19T01:06:17.599Z,42.88
2023-03-19T01:09:24.648Z,43.05
2023-03-19T01:12:33.255Z,43.49
2023-03-19T01:15:40.662Z,43.45
2023-03-19T01:18:46.774Z,43.95
2023-03-19T01:21:53.838Z,43.74
2023-03-19T01:25:01.769Z,44.40
2023-03-19T01:28:11.816Z,44.42
2023-03-19T01:31:19.713Z,44.83
2023-03-19T01:34:49.498Z,45.07
2023-03-19T01:37:56.429Z,45.38
2023-03-19T01:41:04.733Z,45.58
2023-03-19T01:44:35.141Z,45.75
2023-03-19T01:48:00.578Z,45.70
2023-03-19T01:51:26.945Z,45.98
2023-03-19T01:54:53.849Z,45.45
2023-03-19T01:58:19.261Z,45.57
2023-03-19T02:01:59.451Z,45.88
2023-03-19T02:05:13.869Z,46.72
2023-03-19T02:08:27.373Z,46.92
2023-03-19T02:11:35.918Z,47.04
2023-03-19T02:14:42.828Z,47.25
2023-03-19T02:17:52.091Z,47.13
2023-03-19T02:21:09.742Z,47.49
2023-03-19T02:24:24.206Z,47.55
2023-03-19T02:27:42.892Z,47.86
2023-03-19T02:30:49.760Z,48.04
2023-03-19T02:34:06.513Z,47.72
2023-03-19T02:37:22.628Z,48.02
2023-03-19T02:40:38.818Z,48.14
2023-03-19T02:43:54.461Z,48.62
2023-03-19T02:47:01.595Z,48.68
2023-03-19T02:50:09.896Z,48.49
2023-03-19T02:53:16.167Z,49.06
2023-03-19T02:56:22.876Z,49.06
2023-03-19T02:59:31.752Z,49.72
2023-03-19T03:02:38.812Z,49.79
2023-03-19T03:05:45.171Z,49.42
2023-03-19T03:08:58.596Z,49.96
2023-03-19T03:12:04.775Z,50.57
2023-03-19T03:15:17.648Z,50.29
2023-03-19T03:18:26.019Z,50.27
2023-03-19T03:21:35.381Z,50.73
2023-03-19T03:24:43.777Z,50.46
2023-03-19T03:27:50.510Z,50.48
2023-03-19T03:31:05.811Z,50.46
2023-03-19T03:34:13.238Z,50.66
2023-03-19T03:37:19.949Z,50.94
2023-03-19T03:40:27.689Z,51.30
2023-03-19T03:43:34.095Z,51.67
2023-03-19T03:46:46.399Z,51.98
2023-03-19T03:49:52.489Z,52.63
2023-03-19T03:52:59.318Z,52.42
2023-03-19T03:56:05.627Z,52.61
2023-03-19T03:59:12.645Z,52.22
2023-03-19T04:02:21.183Z,51.86
2023-03-19T04:05:31.675Z,51.76
2023-03-19T04:08:43.705Z,52.32
2023-03-19T04:11:52.057Z,52.61
2023-03-19T04:14:58.091Z,52.36
2023-03-19T04:18:07.805Z,52.41
2023-03-19T04:21:13.825Z,52.41
2023-03-19T04:24:27.089Z,52.22
2023-03-19T04:27:36.037Z,52.39
2023-03-19T04:30:43.677Z,52.49
2023-03-19T04:33:53.752Z,52.56
2023-03-19T04:37:02.455Z,53.13
2023-03-19T04:40:12.656Z,53.94
2023-03-19T04:43:21.355Z,54.80
2023-03-19T04:46:28.210Z,55.28
2023-03-19T04:49:44.538Z,55.27
2023-03-19T04:52:57.117Z,55.39
2023-03-19T04:56:18.190Z,55.39
2023-03-19T04:59:25.351Z,55.92
2023-03-19T05:02:32.558Z,56.09
2023-03-19T05:05:41.542Z,56.86
2023-03-19T05:08:54.012Z,57.24
2023-03-19T05:12:02.129Z,57.84
2023-03-19T05:15:14.718Z,57.97
2023-03-19T05:18:29.981Z,57.96
2023-03-19T05:21:41.103Z,57.83
2023-03-19T05:24:47.242Z,57.80
2023-03-19T05:27:54.513Z,57.79
2023-03-19T05:31:10.154Z,58.14
2023-03-19T05:34:24.570Z,58.19
2023-03-19T05:37:33.910Z,57.94
2023-03-19T05:40:42.217Z,57.62
2023-03-19T05:44:01.857Z,57.56
2023-03-19T05:47:28.798Z,58.54
2023-03-19T05:50:36.763Z,58.62
2023-03-19T05:54:13.003Z,58.32
2023-03-19T05:57:32.281Z,56.84
2023-03-19T06:00:59.982Z,55.45
2023-03-19T06:04:09.529Z,54.12
2023-03-19T06:07:16.709Z,52.08
2023-03-19T06:10:32.385Z,51.63
2023-03-19T06:13:46.213Z,50.68
2023-03-19T06:16:57.965Z,48.92
2023-03-19T06:20:07.587Z,48.69
2023-03-19T06:23:16.210Z,49.98
2023-03-19T06:26:26.000Z,48.76
2023-03-19T06:29:36.361Z,46.88
2023-03-19T06:32:56.011Z,47.16
2023-03-19T06:36:03.444Z,47.44
2023-03-19T06:39:13.031Z,47.18
2023-03-19T06:42:21.761Z,45.02
2023-03-19T06:45:28.889Z,44.67
2023-03-19T06:48:34.776Z,44.94
2023-03-19T06:51:41.505Z,45.13
2023-03-19T06:54:47.454Z,45.71
2023-03-19T06:57:56.783Z,45.38
2023-03-19T07:01:09.229Z,46.38
2023-03-19T07:04:16.141Z,45.26
2023-03-19T07:07:23.184Z,44.96
2023-03-19T07:10:30.104Z,44.82
2023-03-19T07:13:49.706Z,46.40
2023-03-19T07:16:56.479Z,46.91
2023-03-19T07:20:02.367Z,46.57
2023-03-19T07:23:15.179Z,45.65
2023-03-19T07:26:21.424Z,45.71
2023-03-19T07:29:30.827Z,46.39
2023-03-19T07:32:44.092Z,46.52
2023-03-19T07:35:51.077Z,45.77
2023-03-19T07:38:57.631Z,43.36
2023-03-19T07:42:04.611Z,41.42
2023-03-19T07:45:15.301Z,41.02
2023-03-19T07:48:23.193Z,40.19
2023-03-19T07:51:29.673Z,40.02
2023-03-19T07:54:36.974Z,38.15
2023-03-19T07:57:42.952Z,35.73
2023-03-19T08:00:57.081Z,35.82
2023-03-19T08:04:05.018Z,35.18
2023-03-19T08:07:14.298Z,35.37
2023-03-19T08:10:21.038Z,35.49
2023-03-19T08:13:27.844Z,35.54
2023-03-19T08:16:36.621Z,35.09
2023-03-19T08:19:43.315Z,35.62
2023-03-19T08:22:53.989Z,36.09
2023-03-19T08:26:00.850Z,33.55
2023-03-19T08:29:14.134Z,31.64
2023-03-19T08:32:23.628Z,30.45
2023-03-19T08:35:30.009Z,31.76
2023-03-19T08:38:36.848Z,31.14
2023-03-19T08:41:49.104Z,30.28
2023-03-19T08:44:56.641Z,27.86
2023-03-19T08:48:05.270Z,28.71
2023-03-19T08:51:13.179Z,30.59
2023-03-19T08:54:24.442Z,28.98
2023-03-19T08:57:31.346Z,28.24
2023-03-19T09:00:37.369Z,25.36
2023-03-19T09:03:50.262Z,27.66
2023-03-19T09:06:56.562Z,26.38
2023-03-19T09:10:03.305Z,27.96
2023-03-19T09:13:09.479Z,29.22
2023-03-19T09:16:19.284Z,28.81
2023-03-19T09:19:29.194Z,27.26
2023-03-19T09:22:36.482Z,28.06
2023-03-19T09:25:46.370Z,26.42
2023-03-19T09:28:56.455Z,26.95
2023-03-19T09:32:03.307Z,25.57
2023-03-19T09:35:14.091Z,23.88
2023-03-19T09:38:20.054Z,23.97
2023-03-19T09:41:43.504Z,23.19
2023-03-19T09:44:50.493Z,24.64
2023-03-19T09:48:15.229Z,23.56
2023-03-19T09:51:36.392Z,23.04
2023-03-19T09:54:52.796Z,23.20
2023-03-19T09:58:09.215Z,25.63
2023-03-19T10:01:43.995Z,24.52
2023-03-19T10:05:09.450Z,24.29
2023-03-19T10:08:49.294Z,23.21
2023-03-19T10:12:20.484Z,23.49
2023-03-19T10:15:33.602Z,23.68
2023-03-19T10:18:42.894Z,23.40
2023-03-19T10:22:02.924Z,21.78
2023-03-19T10:25:22.984Z,25.78
2023-03-19T10:28:33.038Z,25.07
2023-03-19T10:31:52.078Z,22.42
2023-03-19T10:35:08.442Z,23.34
2023-03-19T10:38:25.953Z,26.52
2023-03-19T10:41:56.561Z,26.07
2023-03-19T10:45:13.190Z,25.24
2023-03-19T10:48:22.593Z,26.90
2023-03-19T10:51:30.865Z,24.75
2023-03-19T10:54:48.563Z,26.31
2023-03-19T10:58:08.531Z,25.54
2023-03-19T11:01:16.833Z,24.65
2023-03-19T11:04:26.560Z,26.94
2023-03-19T11:07:40.316Z,26.22
2023-03-19T11:10:53.097Z,25.76
2023-03-19T11:14:10.417Z,24.42
2023-03-19T11:17:26.528Z,25.57
2023-03-19T11:20:42.060Z,25.46
2023-03-19T11:23:48.210Z,24.48
2023-03-19T11:26:59.789Z,25.63
2023-03-19T11:30:23.342Z,24.95
2023-03-19T11:34:00.269Z,23.57
2023-03-19T11:37:29.319Z,23.63
2023-03-19T11:40:47.759Z,24.95
2023-03-19T11:44:05.257Z,26.91
2023-03-19T11:47:38.000Z,25.13
2023-03-19T11:50:58.020Z,24.62
2023-03-19T11:54:19.293Z,24.45
2023-03-19T11:57:49.741Z,25.04
2023-03-19T12:01:03.368Z,25.19
2023-03-19T12:04:42.170Z,24.95
2023-03-19T12:08:07.562Z,24.32
2023-03-19T12:11:35.540Z,24.58
2023-03-19T12:15:05.271Z,24.79
2023-03-19T12:18:31.455Z,24.48
2023-03-19T12:22:07.010Z,25.60
2023-03-19T12:25:38.909Z,25.34
2023-03-19T12:28:59.633Z,23.03
2023-03-19T12:32:34.079Z,22.62
2023-03-19T12:35:43.484Z,22.07
2023-03-19T12:39:01.299Z,22.61
2023-03-19T12:42:19.440Z,22.68
2023-03-19T12:45:35.083Z,24.88
2023-03-19T12:48:53.603Z,24.81
2023-03-19T12:52:09.750Z,24.73
2023-03-19T12:55:26.157Z,23.44
2023-03-19T12:58:58.574Z,22.88
2023-03-19T13:02:23.923Z,22.88
2023-03-19T13:05:43.729Z,22.73
2023-03-19T13:09:01.292Z,23.68
2023-03-19T13:12:21.572Z,23.76
2023-03-19T13:15:40.568Z,25.88
2023-03-19T13:19:01.510Z,27.32
2023-03-19T13:22:18.427Z,27.99
2023-03-19T13:25:34.336Z,27.67
2023-03-19T13:29:04.574Z,26.88
2023-03-19T13:32:26.976Z,27.61
2023-03-19T13:35:43.896Z,27.52
2023-03-19T13:38:54.506Z,28.23
2023-03-19T13:42:24.569Z,28.77
2023-03-19T13:45:40.631Z,28.89
2023-03-19T13:48:56.775Z,29.30
2023-03-19T13:52:07.311Z,30.12
2023-03-19T13:55:51.335Z,30.41
2023-03-19T13:59:28.225Z,29.49
2023-03-19T14:02:56.844Z,30.30
2023-03-19T14:06:04.048Z,31.13
2023-03-19T14:09:49.634Z,30.65
2023-03-19T14:13:11.917Z,31.56
2023-03-19T14:16:27.462Z,30.93
2023-03-19T14:19:45.504Z,31.31
2023-03-19T14:23:17.972Z,31.57
2023-03-19T14:26:29.685Z,32.43
2023-03-19T14:29:39.085Z,32.56
2023-03-19T14:32:48.863Z,33.03
2023-03-19T14:36:06.051Z,31.92
2023-03-19T14:39:24.776Z,31.95
2023-03-19T14:42:43.494Z,31.91
2023-03-19T14:46:04.280Z,32.04
2023-03-19T14:49:57.945Z,32.09
2023-03-19T14:53:18.774Z,31.83
2023-03-19T14:56:34.822Z,32.29
2023-03-19T14:59:42.223Z,31.48
2023-03-19T15:02:53.551Z,31.68
2023-03-19T15:06:04.676Z,31.80
2023-03-19T15:09:26.981Z,32.87
2023-03-19T15:13:01.159Z,32.79
2023-03-19T15:16:40.438Z,33.02
2023-03-19T15:19:48.887Z,32.54
2023-03-19T15:23:05.770Z,33.17
2023-03-19T15:26:31.954Z,32.88
2023-03-19T15:29:38.757Z,32.52
2023-03-19T15:33:07.860Z,32.21
2023-03-19T15:36:18.545Z,33.17
2023-03-19T15:39:31.941Z,33.07
2023-03-19T15:42:43.464Z,33.08
2023-03-19T15:45:57.655Z,33.60
2023-03-19T15:49:17.448Z,34.06
2023-03-19T15:52:24.774Z,33.81
2023-03-19T15:55:32.819Z,34.24
2023-03-19T15:58:53.195Z,34.27
2023-03-19T16:02:04.448Z,35.01
2023-03-19T16:05:26.585Z,34.47
2023-03-19T16:08:34.670Z,35.02
2023-03-19T16:11:49.544Z,34.59
2023-03-19T16:14:58.966Z,34.87
2023-03-19T16:18:27.935Z,34.83
2023-03-19T16:21:42.642Z,35.04
2023-03-19T16:24:52.856Z,35.31
2023-03-19T16:28:01.886Z,34.92
2023-03-19T16:31:25.216Z,35.44
2023-03-19T16:34:46.847Z,36.25
2023-03-19T16:38:14.147Z,36.35
2023-03-19T16:41:27.884Z,36.34
2023-03-19T16:44:33.919Z,37.39
2023-03-19T16:47:43.483Z,37.25
2023-03-19T16:50:50.405Z,37.43
2023-03-19T16:53:57.658Z,37.69
2023-03-19T16:57:04.307Z,38.01
2023-03-19T17:00:16.707Z,38.05
2023-03-19T17:03:26.350Z,38.63
2023-03-19T17:06:34.675Z,38.42
2023-03-19T17:09:41.421Z,39.47
2023-03-19T17:12:53.219Z,40.34
2023-03-19T17:16:04.010Z,41.10
2023-03-19T17:19:23.914Z,41.38
2023-03-19T17:22:30.116Z,41.85
2023-03-19T17:25:37.095Z,42.09
2023-03-19T17:28:43.013Z,42.42
2023-03-19T17:31:51.199Z,42.60
2023-03-19T17:34:59.963Z,42.91
2023-03-19T17:38:07.190Z,43.67
2023-03-19T17:41:20.047Z,43.77
2023-03-19T17:44:28.155Z,43.68
2023-03-19T17:47:35.582Z,43.63
2023-03-19T17:50:45.357Z,44.28
2023-03-19T17:53:56.260Z,44.67
2023-03-19T17:57:05.062Z,44.79
2023-03-19T18:00:13.623Z,44.21
2023-03-19T18:03:24.778Z,46.02
2023-03-19T18:06:39.989Z,45.79
2023-03-19T18:09:47.187Z,44.28
2023-03-19T18:12:53.756Z,46.31
2023-03-19T18:16:00.815Z,45.88
2023-03-19T18:19:21.784Z,46.86
2023-03-19T18:22:31.202Z,46.11
2023-03-19T18:25:37.570Z,47.01
2023-03-19T18:28:45.586Z,45.04
2023-03-19T18:31:54.112Z,44.12
2023-03-19T18:35:02.005Z,43.49
2023-03-19T18:38:19.475Z,43.11
2023-03-19T18:41:29.615Z,42.96
2023-03-19T18:44:44.310Z,42.69
2023-03-19T18:47:55.249Z,42.06
2023-03-19T18:51:01.297Z,42.06
2023-03-19T18:54:12.827Z,41.89
2023-03-19T18:57:20.649Z,41.64
2023-03-19T19:00:33.011Z,41.32
2023-03-19T19:03:40.708Z,41.10
2023-03-19T19:06:48.362Z,41.19
2023-03-19T19:09:56.962Z,41.25
2023-03-19T19:13:06.403Z,41.42
2023-03-19T19:16:24.002Z,41.76
2023-03-19T19:19:31.097Z,41.28
2023-03-19T19:22:39.848Z,41.43
2023-03-19T19:25:55.358Z,41.37
2023-03-19T19:29:04.900Z,41.43
2023-03-19T19:32:25.011Z,41.51
2023-03-19T19:35:32.469Z,41.58
2023-03-19T19:38:41.482Z,41.17
2023-03-19T19:41:55.501Z,41.68
2023-03-19T19:45:03.726Z,41.65
2023-03-19T19:48:18.821Z,42.06
2023-03-19T19:51:34.520Z,42.10
2023-03-19T19:54:46.730Z,42.60
2023-03-19T19:57:59.443Z,42.75
2023-03-19T20:01:16.597Z,42.75
2023-03-19T20:04:26.493Z,43.25
2023-03-19T20:07:33.879Z,43.08
2023-03-19T20:10:46.100Z,43.18
2023-03-19T20:13:57.587Z,43.24
2023-03-19T20:17:05.820Z,43.10
2023-03-19T20:20:20.180Z,42.85
2023-03-19T20:23:28.042Z,42.86
2023-03-19T20:26:35.222Z,42.64
2023-03-19T20:29:53.968Z,43.37
2023-03-19T20:33:03.927Z,43.26
2023-03-19T20:36:16.669Z,43.34
2023-03-19T20:39:23.252Z,43.62
2023-03-19T20:42:36.701Z,43.56
2023-03-19T20:45:46.282Z,43.57
2023-03-19T20:48:54.306Z,43.88
2023-03-19T20:52:04.866Z,43.67
2023-03-19T20:55:21.715Z,44.14
2023-03-19T20:58:33.877Z,43.92
2023-03-19T21:01:47.781Z,44.19
2023-03-19T21:04:54.496Z,44.55
2023-03-19T21:08:01.923Z,44.42
2023-03-19T21:11:12.729Z,44.45
2023-03-19T21:14:20.560Z,44.48
2023-03-19T21:17:30.379Z,44.72
2023-03-19T21:20:42.764Z,44.93
2023-03-19T21:23:59.893Z,45.11
2023-03-19T21:27:06.899Z,45.52
2023-03-19T21:30:21.043Z,46.31
2023-03-19T21:33:45.473Z,46.03
2023-03-19T21:36:51.358Z,46.63
2023-03-19T21:39:58.227Z,46.57
2023-03-19T21:43:07.268Z,46.84
2023-03-19T21:46:24.491Z,47.05
2023-03-19T21:49:34.223Z,47.13
2023-03-19T21:52:57.580Z,47.50
2023-03-19T21:56:04.601Z,47.94
2023-03-19T21:59:18.353Z,47.67
2023-03-19T22:02:44.742Z,47.74
2023-03-19T22:05:55.904Z,47.98
2023-03-19T22:09:02.101Z,48.01
2023-03-19T22:12:13.673Z,48.01
2023-03-19T22:15:28.651Z,47.80
2023-03-19T22:18:35.324Z,48.34
2023-03-19T22:21:43.878Z,47.71
2023-03-19T22:24:50.779Z,47.98
2023-03-19T22:27:56.860Z,48.07
2023-03-19T22:31:06.471Z,47.81
2023-03-19T22:34:18.776Z,47.62
2023-03-19T22:37:33.042Z,47.91
2023-03-19T22:40:41.333Z,47.92
2023-03-19T22:43:49.636Z,48.12
2023-03-19T22:46:59.374Z,47.62
2023-03-19T22:50:06.343Z,48.02
2023-03-19T22:53:27.096Z,48.15
2023-03-19T22:56:33.757Z,47.97
2023-03-19T22:59:39.755Z,47.97
2023-03-19T23:02:50.995Z,48.40
2023-03-19T23:06:02.594Z,47.81
2023-03-19T23:09:23.026Z,47.90
2023-03-19T23:12:29.046Z,48.62
2023-03-19T23:15:35.998Z,48.76
2023-03-19T23:18:41.935Z,48.28
2023-03-19T23:21:49.034Z,48.31
2023-03-19T23:25:04.637Z,48.84
2023-03-19T23:28:22.758Z,48.31
2023-03-19T23:31:29.527Z,48.55
2023-03-19T23:34:49.705Z,48.82
2023-03-19T23:38:02.110Z,48.81
2023-03-19T23:41:21.402Z,48.82
2023-03-19T23:44:30.386Z,49.26
2023-03-19T23:47:38.839Z,48.80
2023-03-19T23:50:45.005Z,48.90
2023-03-19T23:53:52.750Z,48.95
2023-03-19T23:57:12.796Z,49.24
